FR-0221 weather

Croix De Lognan Heliport
Chamonix, Rhône Alpes, France

Public forecast

Using degrees Celsius for public forecast. Weather courtesy of forecast.io.

METAR (pilot weather report)

Closest report is Sion Airport, 21.9 nm (40.5 km) NE. Retrieved 2019/07/17 11:20 UTC (19 minutes ago):

LSGS 171120Z 25008KT 200V290 9999 FEW090 SCT300 26/12 Q1013

TAF (pilot weather forecast)

Closest forecast is Annecy-Haute-Savoie-Mont Blanc Airport, 35.1 nm (64.9 km) W. Retrieved 2019/07/17 09:00 UTC (3 hours ago):

TAF LFLP 170800Z 1709/1809 VRB03KT CAVOK BECMG 1712/1714 24008KT BECMG 1718/1721 VRB03KT